sensor_id;sensor_type;location;lat;lon;timestamp;P1;durP1;ratioP1;P2;durP2;ratioP2
59854;SDS011;45732;52.850;6.896;2022-08-19T00:00:20;8.45;;;5.90;;
59854;SDS011;45732;52.850;6.896;2022-08-19T00:02:46;9.38;;;5.93;;
59854;SDS011;45732;52.850;6.896;2022-08-19T00:05:12;8.45;;;6.13;;
59854;SDS011;45732;52.850;6.896;2022-08-19T00:07:40;8.45;;;6.25;;
59854;SDS011;45732;52.850;6.896;2022-08-19T00:10:08;9.13;;;6.60;;
59854;SDS011;45732;52.850;6.896;2022-08-19T00:12:36;11.38;;;8.45;;
59854;SDS011;45732;52.850;6.896;2022-08-19T00:15:06;9.88;;;8.15;;
59854;SDS011;45732;52.850;6.896;2022-08-19T00:17:37;10.30;;;8.35;;
59854;SDS011;45732;52.850;6.896;2022-08-19T00:20:08;11.23;;;8.85;;
59854;SDS011;45732;52.850;6.896;2022-08-19T00:22:35;12.10;;;9.73;;
59854;SDS011;45732;52.850;6.896;2022-08-19T00:25:02;11.07;;;9.55;;
59854;SDS011;45732;52.850;6.896;2022-08-19T00:27:28;10.43;;;9.23;;
59854;SDS011;45732;52.850;6.896;2022-08-19T00:29:53;12.02;;;8.48;;
59854;SDS011;45732;52.850;6.896;2022-08-19T00:32:19;10.02;;;7.97;;
59854;SDS011;45732;52.850;6.896;2022-08-19T00:34:45;10.07;;;8.20;;
59854;SDS011;45732;52.850;6.896;2022-08-19T00:37:11;9.77;;;7.88;;
59854;SDS011;45732;52.850;6.896;2022-08-19T00:39:37;9.93;;;7.90;;
59854;SDS011;45732;52.850;6.896;2022-08-19T00:42:03;9.80;;;8.48;;
59854;SDS011;45732;52.850;6.896;2022-08-19T00:44:31;10.75;;;8.20;;
59854;SDS011;45732;52.850;6.896;2022-08-19T00:46:57;10.45;;;8.82;;
59854;SDS011;45732;52.850;6.896;2022-08-19T00:52:29;11.15;;;9.10;;
59854;SDS011;45732;52.850;6.896;2022-08-19T00:54:58;11.35;;;9.15;;
59854;SDS011;45732;52.850;6.896;2022-08-19T00:57:35;11.40;;;9.95;;
59854;SDS011;45732;52.850;6.896;2022-08-19T01:00:05;12.05;;;9.13;;
59854;SDS011;45732;52.850;6.896;2022-08-19T01:02:37;12.00;;;9.30;;
59854;SDS011;45732;52.850;6.896;2022-08-19T01:05:05;10.88;;;9.32;;
59854;SDS011;45732;52.850;6.896;2022-08-19T01:07:34;11.30;;;9.40;;
59854;SDS011;45732;52.850;6.896;2022-08-19T01:10:03;12.13;;;9.75;;
59854;SDS011;45732;52.850;6.896;2022-08-19T01:12:30;12.32;;;8.90;;
59854;SDS011;45732;52.850;6.896;2022-08-19T01:14:56;11.55;;;8.80;;
59854;SDS011;45732;52.850;6.896;2022-08-19T01:17:23;10.63;;;9.23;;
59854;SDS011;45732;52.850;6.896;2022-08-19T01:19:49;11.95;;;9.80;;
59854;SDS011;45732;52.850;6.896;2022-08-19T01:24:46;11.90;;;10.70;;
59854;SDS011;45732;52.850;6.896;2022-08-19T01:27:12;12.15;;;10.80;;
59854;SDS011;45732;52.850;6.896;2022-08-19T01:29:39;13.40;;;10.93;;
59854;SDS011;45732;52.850;6.896;2022-08-19T01:32:09;12.68;;;11.10;;
59854;SDS011;45732;52.850;6.896;2022-08-19T01:34:40;11.60;;;10.40;;
59854;SDS011;45732;52.850;6.896;2022-08-19T01:37:07;14.07;;;11.40;;
59854;SDS011;45732;52.850;6.896;2022-08-19T01:39:36;16.75;;;12.23;;
59854;SDS011;45732;52.850;6.896;2022-08-19T01:42:04;12.82;;;10.20;;
59854;SDS011;45732;52.850;6.896;2022-08-19T01:44:32;12.05;;;9.68;;
59854;SDS011;45732;52.850;6.896;2022-08-19T01:46:58;10.15;;;8.82;;
59854;SDS011;45732;52.850;6.896;2022-08-19T01:49:24;10.77;;;9.20;;
59854;SDS011;45732;52.850;6.896;2022-08-19T01:51:51;12.25;;;8.10;;
59854;SDS011;45732;52.850;6.896;2022-08-19T01:54:18;11.68;;;8.07;;
59854;SDS011;45732;52.850;6.896;2022-08-19T01:56:46;10.35;;;7.90;;
59854;SDS011;45732;52.850;6.896;2022-08-19T01:59:16;10.32;;;7.88;;
59854;SDS011;45732;52.850;6.896;2022-08-19T02:01:43;11.75;;;8.65;;
59854;SDS011;45732;52.850;6.896;2022-08-19T02:04:10;11.13;;;8.65;;
59854;SDS011;45732;52.850;6.896;2022-08-19T02:06:35;11.43;;;8.95;;
59854;SDS011;45732;52.850;6.896;2022-08-19T02:09:02;11.15;;;8.02;;
59854;SDS011;45732;52.850;6.896;2022-08-19T02:11:31;10.40;;;7.68;;
59854;SDS011;45732;52.850;6.896;2022-08-19T02:13:59;12.10;;;7.43;;
59854;SDS011;45732;52.850;6.896;2022-08-19T02:16:27;10.70;;;7.18;;
59854;SDS011;45732;52.850;6.896;2022-08-19T02:18:53;10.68;;;7.65;;
59854;SDS011;45732;52.850;6.896;2022-08-19T02:21:20;9.30;;;6.05;;
59854;SDS011;45732;52.850;6.896;2022-08-19T02:23:47;12.02;;;7.55;;
59854;SDS011;45732;52.850;6.896;2022-08-19T02:26:13;10.45;;;7.75;;
59854;SDS011;45732;52.850;6.896;2022-08-19T02:28:40;11.13;;;7.47;;
59854;SDS011;45732;52.850;6.896;2022-08-19T02:31:11;8.57;;;6.45;;
59854;SDS011;45732;52.850;6.896;2022-08-19T02:33:40;9.40;;;7.32;;
59854;SDS011;45732;52.850;6.896;2022-08-19T02:36:06;9.60;;;7.15;;
59854;SDS011;45732;52.850;6.896;2022-08-19T02:38:33;10.60;;;7.20;;
59854;SDS011;45732;52.850;6.896;2022-08-19T02:41:04;10.95;;;7.88;;
59854;SDS011;45732;52.850;6.896;2022-08-19T02:43:32;9.85;;;7.75;;
59854;SDS011;45732;52.850;6.896;2022-08-19T02:46:01;11.45;;;9.30;;
59854;SDS011;45732;52.850;6.896;2022-08-19T02:48:27;10.93;;;8.07;;
59854;SDS011;45732;52.850;6.896;2022-08-19T02:50:53;13.10;;;9.93;;
59854;SDS011;45732;52.850;6.896;2022-08-19T02:53:22;12.10;;;9.32;;
59854;SDS011;45732;52.850;6.896;2022-08-19T02:55:49;12.52;;;9.70;;
59854;SDS011;45732;52.850;6.896;2022-08-19T02:58:16;12.93;;;9.60;;
59854;SDS011;45732;52.850;6.896;2022-08-19T03:00:47;12.73;;;8.77;;
59854;SDS011;45732;52.850;6.896;2022-08-19T03:03:15;12.23;;;8.85;;
59854;SDS011;45732;52.850;6.896;2022-08-19T03:05:47;13.13;;;10.10;;
59854;SDS011;45732;52.850;6.896;2022-08-19T03:08:13;14.82;;;9.90;;
59854;SDS011;45732;52.850;6.896;2022-08-19T03:10:40;18.50;;;10.35;;
59854;SDS011;45732;52.850;6.896;2022-08-19T03:13:09;52.92;;;11.18;;
59854;SDS011;45732;52.850;6.896;2022-08-19T03:15:38;18.10;;;8.70;;
59854;SDS011;45732;52.850;6.896;2022-08-19T03:18:05;10.30;;;7.15;;
59854;SDS011;45732;52.850;6.896;2022-08-19T03:20:31;8.25;;;6.50;;
59854;SDS011;45732;52.850;6.896;2022-08-19T03:22:56;8.90;;;6.45;;
59854;SDS011;45732;52.850;6.896;2022-08-19T03:25:22;8.75;;;6.95;;
59854;SDS011;45732;52.850;6.896;2022-08-19T03:27:48;9.25;;;6.85;;
59854;SDS011;45732;52.850;6.896;2022-08-19T03:30:13;8.02;;;6.53;;
59854;SDS011;45732;52.850;6.896;2022-08-19T03:32:39;8.80;;;5.95;;
59854;SDS011;45732;52.850;6.896;2022-08-19T03:35:05;8.52;;;6.30;;
59854;SDS011;45732;52.850;6.896;2022-08-19T03:37:32;7.40;;;5.60;;
59854;SDS011;45732;52.850;6.896;2022-08-19T03:39:58;9.40;;;6.45;;
59854;SDS011;45732;52.850;6.896;2022-08-19T03:42:23;9.10;;;6.72;;
59854;SDS011;45732;52.850;6.896;2022-08-19T03:44:52;12.50;;;8.48;;
59854;SDS011;45732;52.850;6.896;2022-08-19T03:47:17;9.20;;;6.80;;
59854;SDS011;45732;52.850;6.896;2022-08-19T03:49:44;10.18;;;7.95;;
59854;SDS011;45732;52.850;6.896;2022-08-19T03:52:10;9.60;;;8.00;;
59854;SDS011;45732;52.850;6.896;2022-08-19T03:54:36;9.93;;;7.95;;
59854;SDS011;45732;52.850;6.896;2022-08-19T03:57:04;8.98;;;7.50;;
59854;SDS011;45732;52.850;6.896;2022-08-19T03:59:31;10.63;;;8.00;;
59854;SDS011;45732;52.850;6.896;2022-08-19T04:02:02;11.80;;;8.32;;
59854;SDS011;45732;52.850;6.896;2022-08-19T04:04:34;11.20;;;7.97;;
59854;SDS011;45732;52.850;6.896;2022-08-19T04:06:59;10.93;;;8.50;;
59854;SDS011;45732;52.850;6.896;2022-08-19T04:09:25;10.20;;;8.27;;
59854;SDS011;45732;52.850;6.896;2022-08-19T04:11:53;11.43;;;7.88;;
59854;SDS011;45732;52.850;6.896;2022-08-19T04:14:20;8.98;;;7.18;;
59854;SDS011;45732;52.850;6.896;2022-08-19T04:16:49;8.60;;;7.00;;
59854;SDS011;45732;52.850;6.896;2022-08-19T04:19:16;11.48;;;7.80;;
59854;SDS011;45732;52.850;6.896;2022-08-19T04:21:44;13.23;;;7.72;;
59854;SDS011;45732;52.850;6.896;2022-08-19T04:24:13;11.27;;;7.78;;
59854;SDS011;45732;52.850;6.896;2022-08-19T04:26:39;9.43;;;7.25;;
59854;SDS011;45732;52.850;6.896;2022-08-19T04:29:07;11.77;;;8.38;;
59854;SDS011;45732;52.850;6.896;2022-08-19T04:31:39;9.48;;;7.20;;
59854;SDS011;45732;52.850;6.896;2022-08-19T04:34:06;10.90;;;6.70;;
59854;SDS011;45732;52.850;6.896;2022-08-19T04:36:36;9.30;;;6.80;;
59854;SDS011;45732;52.850;6.896;2022-08-19T04:39:04;16.23;;;8.85;;
59854;SDS011;45732;52.850;6.896;2022-08-19T04:41:32;15.85;;;8.25;;
59854;SDS011;45732;52.850;6.896;2022-08-19T04:44:16;11.88;;;8.45;;
59854;SDS011;45732;52.850;6.896;2022-08-19T04:46:43;21.13;;;7.93;;
59854;SDS011;45732;52.850;6.896;2022-08-19T04:49:13;18.15;;;8.60;;
59854;SDS011;45732;52.850;6.896;2022-08-19T04:51:43;19.67;;;8.02;;
59854;SDS011;45732;52.850;6.896;2022-08-19T04:54:12;26.13;;;8.73;;
59854;SDS011;45732;52.850;6.896;2022-08-19T04:56:38;20.63;;;8.35;;
59854;SDS011;45732;52.850;6.896;2022-08-19T04:59:05;13.32;;;8.90;;
59854;SDS011;45732;52.850;6.896;2022-08-19T05:01:32;14.07;;;9.43;;
59854;SDS011;45732;52.850;6.896;2022-08-19T05:03:59;14.15;;;11.63;;
59854;SDS011;45732;52.850;6.896;2022-08-19T05:06:30;16.25;;;12.80;;
59854;SDS011;45732;52.850;6.896;2022-08-19T05:08:58;15.07;;;11.73;;
59854;SDS011;45732;52.850;6.896;2022-08-19T05:11:26;13.82;;;11.93;;
59854;SDS011;45732;52.850;6.896;2022-08-19T05:13:55;14.95;;;11.38;;
59854;SDS011;45732;52.850;6.896;2022-08-19T05:16:22;15.27;;;12.35;;
59854;SDS011;45732;52.850;6.896;2022-08-19T05:18:49;16.25;;;12.70;;
59854;SDS011;45732;52.850;6.896;2022-08-19T05:21:33;15.45;;;12.75;;
59854;SDS011;45732;52.850;6.896;2022-08-19T05:24:19;16.73;;;12.27;;
59854;SDS011;45732;52.850;6.896;2022-08-19T05:26:46;19.75;;;14.63;;
59854;SDS011;45732;52.850;6.896;2022-08-19T05:29:17;18.17;;;14.68;;
59854;SDS011;45732;52.850;6.896;2022-08-19T05:31:44;16.15;;;13.32;;
59854;SDS011;45732;52.850;6.896;2022-08-19T05:34:12;18.67;;;14.23;;
59854;SDS011;45732;52.850;6.896;2022-08-19T05:36:41;17.95;;;13.00;;
59854;SDS011;45732;52.850;6.896;2022-08-19T05:39:10;17.10;;;13.30;;
59854;SDS011;45732;52.850;6.896;2022-08-19T05:41:41;16.50;;;13.68;;
59854;SDS011;45732;52.850;6.896;2022-08-19T05:44:07;15.20;;;13.00;;
59854;SDS011;45732;52.850;6.896;2022-08-19T05:46:35;16.98;;;13.75;;
59854;SDS011;45732;52.850;6.896;2022-08-19T05:49:03;14.45;;;12.80;;
59854;SDS011;45732;52.850;6.896;2022-08-19T05:51:31;15.25;;;12.85;;
59854;SDS011;45732;52.850;6.896;2022-08-19T05:53:59;17.55;;;13.05;;
59854;SDS011;45732;52.850;6.896;2022-08-19T05:56:25;18.80;;;15.15;;
59854;SDS011;45732;52.850;6.896;2022-08-19T05:58:51;15.82;;;12.93;;
59854;SDS011;45732;52.850;6.896;2022-08-19T06:01:19;16.67;;;13.18;;
59854;SDS011;45732;52.850;6.896;2022-08-19T06:03:45;15.57;;;13.43;;
59854;SDS011;45732;52.850;6.896;2022-08-19T06:06:13;19.50;;;15.98;;
59854;SDS011;45732;52.850;6.896;2022-08-19T06:08:40;22.45;;;16.17;;
59854;SDS011;45732;52.850;6.896;2022-08-19T06:11:21;17.42;;;15.20;;
59854;SDS011;45732;52.850;6.896;2022-08-19T06:13:50;22.88;;;16.35;;
59854;SDS011;45732;52.850;6.896;2022-08-19T06:16:21;17.95;;;14.75;;
59854;SDS011;45732;52.850;6.896;2022-08-19T06:18:51;17.95;;;15.35;;
59854;SDS011;45732;52.850;6.896;2022-08-19T06:21:21;18.23;;;14.82;;
59854;SDS011;45732;52.850;6.896;2022-08-19T06:23:49;19.00;;;15.65;;
59854;SDS011;45732;52.850;6.896;2022-08-19T06:26:16;18.50;;;15.65;;
59854;SDS011;45732;52.850;6.896;2022-08-19T06:28:43;18.17;;;14.43;;
59854;SDS011;45732;52.850;6.896;2022-08-19T06:31:12;20.42;;;15.80;;
59854;SDS011;45732;52.850;6.896;2022-08-19T06:33:43;19.25;;;15.57;;
59854;SDS011;45732;52.850;6.896;2022-08-19T06:36:27;16.40;;;14.70;;
59854;SDS011;45732;52.850;6.896;2022-08-19T06:38:59;16.88;;;13.80;;
59854;SDS011;45732;52.850;6.896;2022-08-19T06:41:27;20.17;;;13.65;;
59854;SDS011;45732;52.850;6.896;2022-08-19T06:43:55;17.48;;;13.85;;
59854;SDS011;45732;52.850;6.896;2022-08-19T06:46:22;15.95;;;12.77;;
59854;SDS011;45732;52.850;6.896;2022-08-19T06:48:48;16.20;;;13.45;;
59854;SDS011;45732;52.850;6.896;2022-08-19T06:51:15;17.40;;;14.25;;
59854;SDS011;45732;52.850;6.896;2022-08-19T06:53:44;16.70;;;13.32;;
59854;SDS011;45732;52.850;6.896;2022-08-19T06:56:12;15.75;;;11.82;;
59854;SDS011;45732;52.850;6.896;2022-08-19T06:58:39;15.95;;;13.07;;
59854;SDS011;45732;52.850;6.896;2022-08-19T07:01:06;15.95;;;13.32;;
59854;SDS011;45732;52.850;6.896;2022-08-19T07:03:33;15.52;;;13.10;;
59854;SDS011;45732;52.850;6.896;2022-08-19T07:06:07;16.35;;;13.30;;
59854;SDS011;45732;52.850;6.896;2022-08-19T07:08:35;17.13;;;14.32;;
59854;SDS011;45732;52.850;6.896;2022-08-19T07:11:06;17.27;;;13.27;;
59854;SDS011;45732;52.850;6.896;2022-08-19T07:13:33;17.40;;;13.93;;
59854;SDS011;45732;52.850;6.896;2022-08-19T07:16:06;17.88;;;13.80;;
59854;SDS011;45732;52.850;6.896;2022-08-19T07:18:33;16.67;;;13.73;;
59854;SDS011;45732;52.850;6.896;2022-08-19T07:21:07;15.73;;;13.90;;
59854;SDS011;45732;52.850;6.896;2022-08-19T07:23:34;16.35;;;13.63;;
59854;SDS011;45732;52.850;6.896;2022-08-19T07:26:07;16.77;;;13.07;;
59854;SDS011;45732;52.850;6.896;2022-08-19T07:28:33;18.58;;;15.25;;
59854;SDS011;45732;52.850;6.896;2022-08-19T07:30:59;18.38;;;15.05;;
59854;SDS011;45732;52.850;6.896;2022-08-19T07:33:27;17.00;;;14.30;;
59854;SDS011;45732;52.850;6.896;2022-08-19T07:35:55;16.63;;;14.70;;
59854;SDS011;45732;52.850;6.896;2022-08-19T07:38:20;15.88;;;13.80;;
59854;SDS011;45732;52.850;6.896;2022-08-19T07:40:46;15.70;;;14.00;;
59854;SDS011;45732;52.850;6.896;2022-08-19T07:43:12;17.20;;;14.65;;
59854;SDS011;45732;52.850;6.896;2022-08-19T07:45:38;17.45;;;15.23;;
59854;SDS011;45732;52.850;6.896;2022-08-19T07:48:03;16.40;;;14.57;;
59854;SDS011;45732;52.850;6.896;2022-08-19T07:50:29;18.67;;;14.60;;
59854;SDS011;45732;52.850;6.896;2022-08-19T07:52:55;21.73;;;14.90;;
59854;SDS011;45732;52.850;6.896;2022-08-19T07:55:22;17.90;;;14.98;;
59854;SDS011;45732;52.850;6.896;2022-08-19T07:57:49;19.02;;;14.93;;
59854;SDS011;45732;52.850;6.896;2022-08-19T08:00:17;19.13;;;15.38;;
59854;SDS011;45732;52.850;6.896;2022-08-19T08:02:43;17.42;;;14.07;;
59854;SDS011;45732;52.850;6.896;2022-08-19T08:05:09;16.55;;;14.23;;
59854;SDS011;45732;52.850;6.896;2022-08-19T08:07:54;16.25;;;13.80;;
59854;SDS011;45732;52.850;6.896;2022-08-19T08:10:38;17.52;;;14.18;;
59854;SDS011;45732;52.850;6.896;2022-08-19T08:13:04;16.17;;;13.73;;
59854;SDS011;45732;52.850;6.896;2022-08-19T08:15:30;16.15;;;13.57;;
59854;SDS011;45732;52.850;6.896;2022-08-19T08:17:56;15.95;;;13.95;;
59854;SDS011;45732;52.850;6.896;2022-08-19T08:20:23;15.55;;;13.88;;
59854;SDS011;45732;52.850;6.896;2022-08-19T08:22:49;16.50;;;13.40;;
59854;SDS011;45732;52.850;6.896;2022-08-19T08:25:34;15.38;;;13.07;;
59854;SDS011;45732;52.850;6.896;2022-08-19T08:28:00;16.48;;;14.25;;
59854;SDS011;45732;52.850;6.896;2022-08-19T08:30:28;15.57;;;13.25;;
59854;SDS011;45732;52.850;6.896;2022-08-19T08:32:55;14.35;;;12.77;;
59854;SDS011;45732;52.850;6.896;2022-08-19T08:35:21;15.15;;;13.07;;
59854;SDS011;45732;52.850;6.896;2022-08-19T08:37:48;14.45;;;11.60;;
59854;SDS011;45732;52.850;6.896;2022-08-19T08:42:49;17.25;;;13.93;;
59854;SDS011;45732;52.850;6.896;2022-08-19T08:45:45;14.52;;;12.20;;
59854;SDS011;45732;52.850;6.896;2022-08-19T08:48:24;13.93;;;12.32;;
59854;SDS011;45732;52.850;6.896;2022-08-19T08:50:59;15.27;;;13.20;;
59854;SDS011;45732;52.850;6.896;2022-08-19T08:53:29;13.60;;;12.20;;
59854;SDS011;45732;52.850;6.896;2022-08-19T08:55:57;13.70;;;11.70;;
59854;SDS011;45732;52.850;6.896;2022-08-19T08:58:33;12.63;;;10.88;;
59854;SDS011;45732;52.850;6.896;2022-08-19T09:01:10;14.30;;;11.68;;
59854;SDS011;45732;52.850;6.896;2022-08-19T09:03:37;14.30;;;11.20;;
59854;SDS011;45732;52.850;6.896;2022-08-19T09:06:12;13.15;;;11.18;;
59854;SDS011;45732;52.850;6.896;2022-08-19T09:08:46;12.75;;;10.02;;
59854;SDS011;45732;52.850;6.896;2022-08-19T09:11:15;13.63;;;11.13;;
59854;SDS011;45732;52.850;6.896;2022-08-19T09:16:45;13.88;;;12.00;;
59854;SDS011;45732;52.850;6.896;2022-08-19T09:19:11;16.67;;;12.60;;
59854;SDS011;45732;52.850;6.896;2022-08-19T09:21:36;9.70;;;8.10;;
59854;SDS011;45732;52.850;6.896;2022-08-19T09:24:03;10.75;;;8.93;;
59854;SDS011;45732;52.850;6.896;2022-08-19T09:26:30;11.73;;;10.15;;
59854;SDS011;45732;52.850;6.896;2022-08-19T09:28:57;11.13;;;8.32;;
59854;SDS011;45732;52.850;6.896;2022-08-19T09:31:25;12.43;;;9.98;;
59854;SDS011;45732;52.850;6.896;2022-08-19T09:33:53;11.48;;;9.65;;
59854;SDS011;45732;52.850;6.896;2022-08-19T09:36:29;12.25;;;10.15;;
59854;SDS011;45732;52.850;6.896;2022-08-19T09:39:01;12.57;;;10.37;;
59854;SDS011;45732;52.850;6.896;2022-08-19T09:41:28;11.77;;;10.25;;
59854;SDS011;45732;52.850;6.896;2022-08-19T09:43:55;11.77;;;9.05;;
59854;SDS011;45732;52.850;6.896;2022-08-19T09:46:24;13.75;;;11.10;;
59854;SDS011;45732;52.850;6.896;2022-08-19T09:48:52;10.77;;;9.65;;
59854;SDS011;45732;52.850;6.896;2022-08-19T09:51:23;11.32;;;8.50;;
59854;SDS011;45732;52.850;6.896;2022-08-19T09:53:51;11.15;;;8.32;;
59854;SDS011;45732;52.850;6.896;2022-08-19T09:56:19;14.73;;;9.60;;
59854;SDS011;45732;52.850;6.896;2022-08-19T09:58:46;11.07;;;9.35;;
59854;SDS011;45732;52.850;6.896;2022-08-19T10:01:23;14.27;;;9.40;;
59854;SDS011;45732;52.850;6.896;2022-08-19T10:03:52;11.10;;;8.95;;
59854;SDS011;45732;52.850;6.896;2022-08-19T10:06:21;12.35;;;10.23;;
59854;SDS011;45732;52.850;6.896;2022-08-19T10:08:48;11.27;;;10.10;;
59854;SDS011;45732;52.850;6.896;2022-08-19T10:11:14;9.75;;;7.38;;
59854;SDS011;45732;52.850;6.896;2022-08-19T10:13:41;10.20;;;7.13;;
59854;SDS011;45732;52.850;6.896;2022-08-19T10:16:09;9.13;;;6.82;;
59854;SDS011;45732;52.850;6.896;2022-08-19T10:18:38;10.82;;;7.75;;
59854;SDS011;45732;52.850;6.896;2022-08-19T10:21:14;12.05;;;7.50;;
59854;SDS011;45732;52.850;6.896;2022-08-19T10:23:46;12.63;;;8.65;;
59854;SDS011;45732;52.850;6.896;2022-08-19T10:26:14;11.15;;;8.57;;
59854;SDS011;45732;52.850;6.896;2022-08-19T10:28:42;10.75;;;7.93;;
59854;SDS011;45732;52.850;6.896;2022-08-19T10:31:09;9.82;;;8.02;;
59854;SDS011;45732;52.850;6.896;2022-08-19T10:33:38;10.55;;;8.20;;
59854;SDS011;45732;52.850;6.896;2022-08-19T10:36:05;10.30;;;7.82;;
59854;SDS011;45732;52.850;6.896;2022-08-19T10:38:34;9.85;;;8.10;;
59854;SDS011;45732;52.850;6.896;2022-08-19T10:41:08;12.35;;;7.88;;
59854;SDS011;45732;52.850;6.896;2022-08-19T10:43:41;9.10;;;6.80;;
59854;SDS011;45732;52.850;6.896;2022-08-19T10:46:11;9.95;;;7.35;;
59854;SDS011;45732;52.850;6.896;2022-08-19T10:48:38;9.23;;;6.80;;
59854;SDS011;45732;52.850;6.896;2022-08-19T10:51:05;9.73;;;7.80;;
59854;SDS011;45732;52.850;6.896;2022-08-19T10:53:50;11.15;;;8.20;;
59854;SDS011;45732;52.850;6.896;2022-08-19T10:56:16;12.82;;;9.63;;
59854;SDS011;45732;52.850;6.896;2022-08-19T10:59:01;11.50;;;9.18;;
59854;SDS011;45732;52.850;6.896;2022-08-19T11:01:28;11.95;;;9.63;;
59854;SDS011;45732;52.850;6.896;2022-08-19T11:03:56;12.52;;;10.32;;
59854;SDS011;45732;52.850;6.896;2022-08-19T11:06:24;14.75;;;11.30;;
59854;SDS011;45732;52.850;6.896;2022-08-19T11:08:51;14.10;;;10.75;;
59854;SDS011;45732;52.850;6.896;2022-08-19T11:13:53;12.43;;;10.23;;
59854;SDS011;45732;52.850;6.896;2022-08-19T11:16:20;11.85;;;8.80;;
59854;SDS011;45732;52.850;6.896;2022-08-19T11:18:49;9.93;;;8.15;;
59854;SDS011;45732;52.850;6.896;2022-08-19T11:23:48;13.00;;;9.18;;
59854;SDS011;45732;52.850;6.896;2022-08-19T11:26:16;13.75;;;10.90;;
59854;SDS011;45732;52.850;6.896;2022-08-19T11:28:46;11.73;;;8.43;;
59854;SDS011;45732;52.850;6.896;2022-08-19T11:31:13;10.30;;;9.05;;
59854;SDS011;45732;52.850;6.896;2022-08-19T11:33:49;11.30;;;9.07;;
59854;SDS011;45732;52.850;6.896;2022-08-19T11:36:19;11.10;;;9.88;;
59854;SDS011;45732;52.850;6.896;2022-08-19T11:38:48;12.30;;;9.80;;
59854;SDS011;45732;52.850;6.896;2022-08-19T11:41:15;10.85;;;9.75;;
59854;SDS011;45732;52.850;6.896;2022-08-19T11:43:43;13.05;;;10.05;;
59854;SDS011;45732;52.850;6.896;2022-08-19T11:46:10;10.48;;;8.25;;
59854;SDS011;45732;52.850;6.896;2022-08-19T11:48:38;12.52;;;10.80;;
59854;SDS011;45732;52.850;6.896;2022-08-19T11:51:05;9.95;;;8.93;;
59854;SDS011;45732;52.850;6.896;2022-08-19T11:53:33;12.00;;;9.50;;
59854;SDS011;45732;52.850;6.896;2022-08-19T11:56:00;10.75;;;8.68;;
59854;SDS011;45732;52.850;6.896;2022-08-19T11:58:26;11.30;;;9.25;;
59854;SDS011;45732;52.850;6.896;2022-08-19T12:00:52;10.73;;;9.30;;
59854;SDS011;45732;52.850;6.896;2022-08-19T12:03:18;11.75;;;9.38;;
59854;SDS011;45732;52.850;6.896;2022-08-19T12:05:44;10.02;;;8.52;;
59854;SDS011;45732;52.850;6.896;2022-08-19T12:08:13;10.20;;;8.48;;
59854;SDS011;45732;52.850;6.896;2022-08-19T12:10:40;11.95;;;10.05;;
59854;SDS011;45732;52.850;6.896;2022-08-19T12:13:07;12.07;;;8.70;;
59854;SDS011;45732;52.850;6.896;2022-08-19T12:15:37;13.70;;;8.80;;
59854;SDS011;45732;52.850;6.896;2022-08-19T12:18:05;11.15;;;8.70;;
59854;SDS011;45732;52.850;6.896;2022-08-19T12:20:33;10.70;;;8.57;;
59854;SDS011;45732;52.850;6.896;2022-08-19T12:23:00;10.52;;;8.07;;
59854;SDS011;45732;52.850;6.896;2022-08-19T12:25:26;11.27;;;8.63;;
59854;SDS011;45732;52.850;6.896;2022-08-19T12:27:52;10.10;;;8.65;;
59854;SDS011;45732;52.850;6.896;2022-08-19T12:30:17;10.70;;;9.60;;
59854;SDS011;45732;52.850;6.896;2022-08-19T12:32:43;11.73;;;8.80;;
59854;SDS011;45732;52.850;6.896;2022-08-19T12:35:09;11.85;;;8.75;;
59854;SDS011;45732;52.850;6.896;2022-08-19T12:37:35;10.10;;;7.22;;
59854;SDS011;45732;52.850;6.896;2022-08-19T12:40:01;9.90;;;8.07;;
59854;SDS011;45732;52.850;6.896;2022-08-19T12:42:28;9.43;;;8.00;;
59854;SDS011;45732;52.850;6.896;2022-08-19T12:44:55;10.70;;;7.72;;
59854;SDS011;45732;52.850;6.896;2022-08-19T12:47:21;12.00;;;8.63;;
59854;SDS011;45732;52.850;6.896;2022-08-19T12:49:47;9.80;;;7.75;;
59854;SDS011;45732;52.850;6.896;2022-08-19T12:52:14;10.77;;;7.95;;
59854;SDS011;45732;52.850;6.896;2022-08-19T12:54:41;11.98;;;8.02;;
59854;SDS011;45732;52.850;6.896;2022-08-19T12:57:08;9.88;;;7.72;;
59854;SDS011;45732;52.850;6.896;2022-08-19T12:59:35;10.00;;;8.05;;
59854;SDS011;45732;52.850;6.896;2022-08-19T13:02:03;8.15;;;6.78;;
59854;SDS011;45732;52.850;6.896;2022-08-19T13:04:31;9.13;;;7.47;;
59854;SDS011;45732;52.850;6.896;2022-08-19T13:06:58;10.63;;;7.90;;
59854;SDS011;45732;52.850;6.896;2022-08-19T13:09:23;10.55;;;7.95;;
59854;SDS011;45732;52.850;6.896;2022-08-19T13:11:49;10.85;;;8.02;;
59854;SDS011;45732;52.850;6.896;2022-08-19T13:14:15;11.75;;;8.27;;
59854;SDS011;45732;52.850;6.896;2022-08-19T13:16:40;12.50;;;9.15;;
59854;SDS011;45732;52.850;6.896;2022-08-19T13:19:06;9.85;;;8.30;;
59854;SDS011;45732;52.850;6.896;2022-08-19T13:21:32;9.80;;;7.40;;
59854;SDS011;45732;52.850;6.896;2022-08-19T13:23:58;9.10;;;7.50;;
59854;SDS011;45732;52.850;6.896;2022-08-19T13:26:24;8.90;;;7.50;;
59854;SDS011;45732;52.850;6.896;2022-08-19T13:28:50;11.05;;;6.43;;
59854;SDS011;45732;52.850;6.896;2022-08-19T13:31:34;7.38;;;5.07;;
59854;SDS011;45732;52.850;6.896;2022-08-19T13:34:25;8.05;;;5.50;;
59854;SDS011;45732;52.850;6.896;2022-08-19T13:36:59;12.48;;;5.70;;
59854;SDS011;45732;52.850;6.896;2022-08-19T13:39:28;6.28;;;4.28;;
59854;SDS011;45732;52.850;6.896;2022-08-19T13:41:54;8.68;;;4.75;;
59854;SDS011;45732;52.850;6.896;2022-08-19T13:44:20;7.60;;;5.60;;
59854;SDS011;45732;52.850;6.896;2022-08-19T13:46:47;8.85;;;5.07;;
59854;SDS011;45732;52.850;6.896;2022-08-19T13:49:15;6.88;;;4.80;;
59854;SDS011;45732;52.850;6.896;2022-08-19T13:51:42;8.02;;;5.43;;
59854;SDS011;45732;52.850;6.896;2022-08-19T13:54:09;10.02;;;6.10;;
59854;SDS011;45732;52.850;6.896;2022-08-19T13:56:39;6.28;;;4.85;;
59854;SDS011;45732;52.850;6.896;2022-08-19T13:59:09;9.32;;;5.38;;
59854;SDS011;45732;52.850;6.896;2022-08-19T14:01:36;8.15;;;5.13;;
59854;SDS011;45732;52.850;6.896;2022-08-19T14:04:03;7.20;;;5.13;;
59854;SDS011;45732;52.850;6.896;2022-08-19T14:06:29;7.97;;;5.50;;
59854;SDS011;45732;52.850;6.896;2022-08-19T14:08:54;7.18;;;5.28;;
59854;SDS011;45732;52.850;6.896;2022-08-19T14:11:20;6.78;;;5.22;;
59854;SDS011;45732;52.850;6.896;2022-08-19T14:13:48;8.77;;;4.78;;
59854;SDS011;45732;52.850;6.896;2022-08-19T14:16:14;7.45;;;4.40;;
59854;SDS011;45732;52.850;6.896;2022-08-19T14:18:40;7.75;;;4.50;;
59854;SDS011;45732;52.850;6.896;2022-08-19T14:21:06;7.25;;;3.90;;
59854;SDS011;45732;52.850;6.896;2022-08-19T14:23:33;6.55;;;3.90;;
59854;SDS011;45732;52.850;6.896;2022-08-19T14:26:11;5.88;;;4.43;;
59854;SDS011;45732;52.850;6.896;2022-08-19T14:28:39;6.95;;;4.50;;
59854;SDS011;45732;52.850;6.896;2022-08-19T14:31:06;6.30;;;4.80;;
59854;SDS011;45732;52.850;6.896;2022-08-19T14:33:33;8.32;;;4.43;;
59854;SDS011;45732;52.850;6.896;2022-08-19T14:35:59;6.32;;;4.05;;
59854;SDS011;45732;52.850;6.896;2022-08-19T14:38:25;6.28;;;3.90;;
59854;SDS011;45732;52.850;6.896;2022-08-19T14:40:51;6.32;;;4.57;;
59854;SDS011;45732;52.850;6.896;2022-08-19T14:43:17;7.97;;;4.95;;
59854;SDS011;45732;52.850;6.896;2022-08-19T14:45:43;6.90;;;4.80;;
59854;SDS011;45732;52.850;6.896;2022-08-19T14:48:09;6.45;;;4.30;;
59854;SDS011;45732;52.850;6.896;2022-08-19T14:50:35;7.30;;;4.43;;
59854;SDS011;45732;52.850;6.896;2022-08-19T14:53:06;5.63;;;4.20;;
59854;SDS011;45732;52.850;6.896;2022-08-19T14:55:33;7.45;;;4.90;;